M I D A S
Marine Information and Data Acquisition System
Tripno 1960 of the Zeeleeuw from 2010-09-13 06:19:30 to 2010-09-13 13:52:00
Back to CruiseResearch ActivitiesStationsMapUnderway DataData graphs

EquipmentUnitsComments
TimeDGPSUTC
LatitudeDGPSDM.mWGS84
LongitudeDGPSDM.mWGS84
SpeedMeteo Stationm/sRelative wind speed
DirectionMeteo StationdegRelative wind direction
TemperatureMeteo Stationdeg CelciusAir temperature
PressureMeteo StationPaAtmospheric pressure
HumidityMeteo Station%Relative humidity
Missing or incorrect values are displayed as -999
Metereological data collected by the RV Zeeleeuw from 2010-09-13 05:56:46 to 2010-09-13 13:56:12
Time Latitude Longitude Speed Direction Temperature Pressure Humidity
2010-09-13 05:57 51°13.662 2°55.96 3.2 39 15.6 102570 42
2010-09-13 05:58 51°13.663 2°55.96 2 21 15.6 102570 44
2010-09-13 05:59 51°13.663 2°55.961 3.2 41 15.6 102570 43
2010-09-13 06:00 51°13.663 2°55.96 -999 24 15.6 102570 42
2010-09-13 06:01 51°13.663 2°55.96 -999 25 15.7 -999 44
2010-09-13 06:02 51°13.663 2°55.961 0.1 27 15.7 102580 43
2010-09-13 06:03 51°13.662 2°55.961 2.8 28 15.7 102580 43
2010-09-13 06:04 51°13.662 2°55.961 3.1 22 15.7 102580 41
2010-09-13 06:05 51°13.663 2°55.961 3 28 15.7 102580 43
2010-09-13 06:06 51°13.662 2°55.961 1.5 29 15.8 102590 43
2010-09-13 06:07 51°13.662 2°55.962 1.7 28 15.8 102580 43
2010-09-13 06:08 51°13.663 2°55.96 3.9 26 15.8 102580 43
2010-09-13 06:09 51°13.661 2°55.962 3.4 43 15.8 102580 42
2010-09-13 06:10 51°13.661 2°55.962 4.2 43 15.8 102580 44
2010-09-13 06:11 51°13.661 2°55.962 3.3 40 15.7 102590 43
2010-09-13 06:12 51°13.661 2°55.962 2.6 28 15.7 102590 42
2010-09-13 06:13 51°13.66 2°55.958 3.4 25 15.7 102590 42
2010-09-13 06:14 51°13.683 2°55.865 2.6 23 15.7 102600 44
2010-09-13 06:15 51°13.704 2°55.767 4.4 21 16 102600 43
2010-09-13 06:16 51°13.708 2°55.746 1.6 266 16 102600 41
2010-09-13 06:17 51°13.694 2°55.728 1.8 248 15.9 102600 43
2010-09-13 06:18 51°13.746 2°55.704 4.8 325 15.9 102600 43
2010-09-13 06:19 51°13.87 2°55.603 6.7 320 15.9 102590 42
2010-09-13 06:20 51°14.019 2°55.49 7.6 322 15.9 102590 43
2010-09-13 06:21 51°14.175 2°55.38 9.6 320 15.9 102570 43
2010-09-13 06:22 51°14.325 2°55.251 8.9 320 15.9 102570 44
2010-09-13 06:23 51°14.471 2°55.11 10.1 318 15.9 102570 43
2010-09-13 06:24 51°14.604 2°54.94 10.3 328 15.8 102560 43
2010-09-13 06:25 51°14.644 2°54.642 11.2 340 15.9 102570 43
2010-09-13 06:26 51°14.553 2°54.336 10.4 347 15.9 102580 43
2010-09-13 06:27 51°14.411 2°54.068 10.5 348 15.8 102580 43
2010-09-13 06:28 51°14.278 2°53.79 10.9 349 15.8 102590 42
2010-09-13 06:29 51°14.155 2°53.506 10.3 343 15.9 102590 43
2010-09-13 06:30 51°14.029 2°53.224 10.1 346 15.8 102580 42
2010-09-13 06:31 51°13.904 2°52.94 10.7 344 15.9 102590 42
2010-09-13 06:32 51°13.777 2°52.657 10.4 345 15.9 102590 42
2010-09-13 06:33 51°13.651 2°52.37 10.8 344 15.9 102600 43
2010-09-13 06:34 51°13.523 2°52.084 11.3 345 15.9 102590 42
2010-09-13 06:35 51°13.395 2°51.796 10.3 345 15.9 102600 42
2010-09-13 06:36 51°13.266 2°51.512 10.8 343 15.9 102590 41
2010-09-13 06:37 51°13.139 2°51.224 10 342 15.9 102590 42
2010-09-13 06:38 51°13.011 2°50.938 10.6 343 15.9 102590 42
2010-09-13 06:39 51°12.883 2°50.651 10.1 345 15.9 102590 41
2010-09-13 06:40 51°12.755 2°50.366 10.8 340 15.9 102590 42
2010-09-13 06:41 51°12.627 2°50.08 9.6 343 15.8 102590 40
2010-09-13 06:42 51°12.5 2°49.791 10.4 344 15.9 102590 42
2010-09-13 06:43 51°12.396 2°49.484 10.2 343 15.9 102590 42
2010-09-13 06:44 51°12.295 2°49.169 10.8 343 15.9 102600 42
2010-09-13 06:45 51°12.195 2°48.852 10.7 340 15.9 102600 42
2010-09-13 06:46 51°12.095 2°48.535 10.2 342 16 102600 44
2010-09-13 06:47 51°11.994 2°48.218 10.8 340 15.9 102600 42
2010-09-13 06:48 51°11.895 2°47.9 10.9 340 15.9 102600 42
2010-09-13 06:49 51°11.795 2°47.582 9.4 344 15.9 102600 42
2010-09-13 06:50 51°11.694 2°47.264 9.6 342 15.9 102610 44
2010-09-13 06:51 51°11.593 2°46.946 10.4 341 15.9 102610 42
2010-09-13 06:52 51°11.493 2°46.626 10.5 340 15.9 102600 42
2010-09-13 06:53 51°11.392 2°46.304 10.5 339 15.9 102590 41
2010-09-13 06:54 51°11.291 2°45.982 11.3 338 16 102590 41
2010-09-13 06:55 51°11.19 2°45.661 11.7 338 16 102590 41
2010-09-13 06:56 51°11.089 2°45.339 11.2 338 16 102600 42
2010-09-13 06:57 51°10.994 2°45.034 9.3 342 16 102590 41
2010-09-13 06:58 51°10.934 2°44.84 7.5 341 16 102610 43
2010-09-13 06:59 51°10.892 2°44.706 6.3 339 16 102610 42
2010-09-13 07:00 51°10.887 2°44.654 4.8 323 15.9 102610 41
2010-09-13 07:01 51°10.881 2°44.649 3.7 320 16 102610 40
2010-09-13 07:02 51°10.874 2°44.649 5.4 21 16 102610 41
2010-09-13 07:03 51°10.866 2°44.651 5.8 19 16.1 102620 41
2010-09-13 07:04 51°10.858 2°44.654 6.1 23 16.1 102620 41
2010-09-13 07:05 51°10.85 2°44.655 6.1 252 16.2 102620 41
2010-09-13 07:06 51°10.841 2°44.654 4.9 261 16.3 102640 42
2010-09-13 07:07 51°10.833 2°44.652 5 262 16.2 102640 41
2010-09-13 07:08 51°10.825 2°44.65 3.8 267 16.2 102640 42
2010-09-13 07:09 51°10.818 2°44.647 4.5 26 16.2 102640 41
2010-09-13 07:10 51°10.84 2°44.683 2.1 264 16.2 102640 42
2010-09-13 07:11 51°10.908 2°44.783 5.2 252 16.2 102640 41
2010-09-13 07:12 51°11.003 2°44.869 4.5 251 16.3 102630 42
2010-09-13 07:13 51°11.086 2°44.992 4.2 255 16.3 102630 43
2010-09-13 07:14 51°11.149 2°45.141 0.4 28 16.4 102630 41
2010-09-13 07:15 51°11.102 2°45.248 4.9 21 16.5 102630 42
2010-09-13 07:16 51°11.033 2°45.224 6 356 16.4 102630 42
2010-09-13 07:17 51°10.969 2°45.134 7 353 16.2 102620 42
2010-09-13 07:18 51°10.928 2°45.053 6.3 356 16.1 102630 43
2010-09-13 07:19 51°10.898 2°44.984 5.2 349 15.9 102630 42
2010-09-13 07:20 51°10.873 2°44.917 6.5 349 15.9 102630 43
2010-09-13 07:21 51°10.85 2°44.844 6.1 341 15.9 102640 43
2010-09-13 07:22 51°10.831 2°44.766 7.4 347 16 102630 43
2010-09-13 07:23 51°10.81 2°44.687 6.3 346 16 102650 44
2010-09-13 07:24 51°10.79 2°44.606 6.3 351 16 102650 44
2010-09-13 07:25 51°10.768 2°44.525 6.1 343 16 102640 44
2010-09-13 07:26 51°10.747 2°44.444 5.5 342 15.9 102650 43
2010-09-13 07:27 51°10.725 2°44.361 5.7 343 15.9 102640 42
2010-09-13 07:28 51°10.703 2°44.28 6 343 15.9 102640 43
2010-09-13 07:29 51°10.683 2°44.196 5.8 341 16 102640 43
2010-09-13 07:30 51°10.669 2°44.113 6.7 336 16.1 102650 45
2010-09-13 07:31 51°10.655 2°44.031 6.4 333 16 102640 42
2010-09-13 07:32 51°10.642 2°43.943 6.1 332 16 102640 42
2010-09-13 07:33 51°10.627 2°43.846 5.3 336 16 102650 42
2010-09-13 07:34 51°10.609 2°43.779 6.3 347 16 102640 43
2010-09-13 07:35 51°10.589 2°43.73 5.5 348 16 102650 43
2010-09-13 07:36 51°10.585 2°43.591 8.5 326 16 102650 42
2010-09-13 07:37 51°10.685 2°43.416 10.7 321 16 102650 43
2010-09-13 07:38 51°10.763 2°43.155 10.5 327 16 102640 43
2010-09-13 07:39 51°10.796 2°42.855 9.4 328 16.1 102650 43
2010-09-13 07:40 51°10.868 2°42.706 6.6 20 16.1 102640 44
2010-09-13 07:41 51°10.878 2°42.684 5.7 24 16.1 102660 44
2010-09-13 07:42 51°10.857 2°42.651 5 26 16.1 102660 43
2010-09-13 07:43 51°10.84 2°42.627 4.8 20 16.1 102660 43
2010-09-13 07:44 51°10.825 2°42.606 5.7 270 16.2 102660 45
2010-09-13 07:45 51°10.811 2°42.588 4.4 22 16.1 102650 42
2010-09-13 07:46 51°10.8 2°42.571 4 28 16.1 102660 42
2010-09-13 07:47 51°10.791 2°42.556 4.9 30 16 102650 42
2010-09-13 07:48 51°10.784 2°42.545 5.2 27 15.9 102660 40
2010-09-13 07:49 51°10.778 2°42.538 4.8 25 16 102650 42
2010-09-13 07:50 51°10.776 2°42.538 4.5 29 16.1 102660 44
2010-09-13 07:51 51°10.825 2°42.617 4.5 252 16.1 102660 43
2010-09-13 07:52 51°10.896 2°42.762 2.2 261 16.2 102670 41
2010-09-13 07:53 51°10.967 2°42.92 5.3 253 16.4 102670 41
2010-09-13 07:54 51°11.052 2°43.053 1.9 269 16.5 102670 42
2010-09-13 07:55 51°11.041 2°43.163 3.5 38 16.5 102680 41
2010-09-13 07:56 51°10.973 2°43.187 6.1 11 16.5 102670 44
2010-09-13 07:57 51°10.889 2°43.152 5.3 1 16.3 102670 42
2010-09-13 07:58 51°10.827 2°43.095 6 360 16.2 102670 45
2010-09-13 07:59 51°10.775 2°43.029 6.5 352 16.1 102680 42
2010-09-13 08:00 51°10.733 2°42.955 6.7 350 16 102670 41
2010-09-13 08:01 51°10.698 2°42.874 6.3 349 16 102670 44
2010-09-13 08:02 51°10.667 2°42.789 6.5 346 15.9 102670 42
2010-09-13 08:03 51°10.643 2°42.698 6.9 346 15.9 102670 43
2010-09-13 08:04 51°10.621 2°42.605 6.8 339 15.9 102670 45
2010-09-13 08:05 51°10.602 2°42.512 6.7 336 16 102670 44
2010-09-13 08:06 51°10.585 2°42.417 5.8 337 15.9 102670 43
2010-09-13 08:07 51°10.571 2°42.319 6.2 333 16 102670 43
2010-09-13 08:08 51°10.559 2°42.22 6.9 329 16 102670 42
2010-09-13 08:09 51°10.55 2°42.124 5.9 328 16 102670 43
2010-09-13 08:10 51°10.545 2°42.029 6.4 322 16 102670 44
2010-09-13 08:11 51°10.546 2°41.919 7.7 325 16 102660 44
2010-09-13 08:12 51°10.552 2°41.804 7.1 326 16 102660 44
2010-09-13 08:13 51°10.552 2°41.72 5.8 326 16 102660 44
2010-09-13 08:14 51°10.547 2°41.658 5.5 329 16 102660 44
2010-09-13 08:15 51°10.539 2°41.607 5.3 327 16 102670 44
2010-09-13 08:16 51°10.543 2°41.522 6.4 22 16 102660 44
2010-09-13 08:17 51°10.599 2°41.346 9.3 322 16 102660 44
2010-09-13 08:18 51°10.655 2°41.094 9.1 319 16 102660 43
2010-09-13 08:19 51°10.735 2°40.936 6.1 249 16.1 102660 45
2010-09-13 08:20 51°10.772 2°40.928 5 23 16.1 102680 43
2010-09-13 08:21 51°10.771 2°40.918 5.5 30 16 102690 43
2010-09-13 08:22 51°10.766 2°40.908 3.4 28 16 102690 43
2010-09-13 08:23 51°10.761 2°40.9 5.6 22 16 102690 44
2010-09-13 08:24 51°10.758 2°40.893 5.1 29 16 102690 42
2010-09-13 08:25 51°10.755 2°40.882 4.1 24 16 102690 43
2010-09-13 08:26 51°10.752 2°40.87 4.3 28 16.1 102690 45
2010-09-13 08:27 51°10.749 2°40.856 5.6 25 16.1 102690 44
2010-09-13 08:28 51°10.745 2°40.84 4.5 265 16.1 102690 43
2010-09-13 08:29 51°10.741 2°40.824 4.5 263 16.1 102690 43
2010-09-13 08:30 51°10.763 2°40.851 2.6 24 16.1 102690 43
2010-09-13 08:31 51°10.826 2°40.973 3.8 254 16.2 102690 42
2010-09-13 08:32 51°10.925 2°41.103 5.1 251 16.3 102690 43
2010-09-13 08:33 51°10.964 2°41.214 1.8 41 16.4 102690 42
2010-09-13 08:34 51°10.885 2°41.263 5.2 8 16.5 102680 43
2010-09-13 08:35 51°10.794 2°41.229 6.4 1 16.4 102680 44
2010-09-13 08:36 51°10.733 2°41.16 6.5 356 16.2 102670 41
2010-09-13 08:37 51°10.685 2°41.09 5.9 351 16.1 102670 43
2010-09-13 08:38 51°10.644 2°41.025 6.3 355 16.1 102680 43
2010-09-13 08:39 51°10.603 2°40.961 6.5 355 16.1 102680 42
2010-09-13 08:40 51°10.56 2°40.896 6.4 352 16.1 102680 42
2010-09-13 08:41 51°10.518 2°40.829 6.7 355 16 102680 42
2010-09-13 08:42 51°10.474 2°40.763 6.4 347 16 102680 42
2010-09-13 08:43 51°10.432 2°40.697 6.3 346 16.1 102680 44
2010-09-13 08:44 51°10.391 2°40.631 6.5 350 16 102670 42
2010-09-13 08:45 51°10.349 2°40.566 7.1 346 15.9 102680 41
2010-09-13 08:46 51°10.31 2°40.499 7.1 343 16 102670 42
2010-09-13 08:47 51°10.277 2°40.425 6.4 340 16 102680 43
2010-09-13 08:48 51°10.251 2°40.344 6.3 337 16.1 102680 43
2010-09-13 08:49 51°10.237 2°40.254 6.6 328 16.1 102680 42
2010-09-13 08:50 51°10.236 2°40.165 6.6 320 16.2 102690 42
2010-09-13 08:51 51°10.242 2°40.104 6.8 315 16.2 102690 42
2010-09-13 08:52 51°10.248 2°40.061 5.6 29 16.2 102680 41
2010-09-13 08:53 51°10.253 2°40.029 5.8 24 16.3 102680 42
2010-09-13 08:54 51°10.258 2°40.002 5.7 23 16.4 102680 41
2010-09-13 08:55 51°10.266 2°39.971 6.3 23 16.4 102690 41
2010-09-13 08:56 51°10.288 2°39.859 8 331 16.5 102680 41
2010-09-13 08:57 51°10.289 2°39.608 10.3 331 16.5 102670 41
2010-09-13 08:58 51°10.292 2°39.288 11.7 329 16.4 102660 41
2010-09-13 08:59 51°10.297 2°38.943 10.7 326 16.3 102670 41
2010-09-13 09:00 51°10.301 2°38.572 11.7 331 16.4 102660 41
2010-09-13 09:03 51°10.245 2°37.633 11.6 328 16.2 102660 40
2010-09-13 09:04 51°10.211 2°37.176 11.6 331 16.3 102660 41
2010-09-13 09:05 51°10.18 2°36.797 11.7 332 16.3 102670 42
2010-09-13 09:06 51°10.141 2°36.418 11.5 332 16.2 102660 41
2010-09-13 09:07 51°10.167 2°36.046 11.2 320 16.3 102670 43
2010-09-13 09:08 51°10.34 2°35.997 4 21 16.3 102680 42
2010-09-13 09:09 51°10.52 2°36.15 5.8 21 16.3 102690 43
2010-09-13 09:10 51°10.708 2°36.291 6.5 25 16.4 102680 43
2010-09-13 09:11 51°10.903 2°36.418 6.1 241 16.4 102680 42
2010-09-13 09:12 51°11.096 2°36.546 5.7 22 16.5 102680 42
2010-09-13 09:13 51°11.287 2°36.674 5.2 23 16.5 102680 41
2010-09-13 09:14 51°11.478 2°36.802 6.1 244 16.5 102680 42
2010-09-13 09:15 51°11.668 2°36.927 5.9 23 16.5 102680 39
2010-09-13 09:16 51°11.859 2°37.053 5.3 24 16.6 102680 42
2010-09-13 09:17 51°12.05 2°37.18 5.9 28 16.6 102680 42
2010-09-13 09:18 51°12.24 2°37.307 5.4 24 16.6 102680 41
2010-09-13 09:19 51°12.423 2°37.461 4.4 244 16.6 102680 40
2010-09-13 09:20 51°12.6 2°37.629 3.9 28 16.7 102680 40
2010-09-13 09:21 51°12.779 2°37.796 5.1 19 16.7 102680 41
2010-09-13 09:22 51°12.945 2°37.988 2.3 22 16.7 102680 42
2010-09-13 09:23 51°13.092 2°38.217 1.8 20 16.7 102670 40
2010-09-13 09:24 51°13.238 2°38.444 1.3 22 16.7 102680 40
2010-09-13 09:25 51°13.395 2°38.649 3.7 248 16.8 102680 41
2010-09-13 09:26 51°13.582 2°38.792 4.9 23 16.8 102670 41
2010-09-13 09:27 51°13.77 2°38.934 6.2 25 16.8 102670 41
2010-09-13 09:28 51°13.957 2°39.078 6.1 247 16.8 102660 41
2010-09-13 09:29 51°14.143 2°39.225 5.2 245 16.7 102670 40
2010-09-13 09:30 51°14.33 2°39.371 4.6 249 16.7 102670 40
2010-09-13 09:31 51°14.517 2°39.521 4.7 28 16.7 102670 40
2010-09-13 09:32 51°14.704 2°39.671 5.2 249 16.7 102670 40
2010-09-13 09:33 51°14.891 2°39.823 4.2 249 16.7 102680 39
2010-09-13 09:34 51°15.077 2°39.976 4.8 20 16.8 102680 39
2010-09-13 09:35 51°15.263 2°40.131 5 251 16.8 102680 40
2010-09-13 09:36 51°15.448 2°40.288 4.4 252 16.8 102680 39
2010-09-13 09:37 51°15.633 2°40.444 5.1 253 16.8 102680 40
2010-09-13 09:38 51°15.82 2°40.598 5 24 16.7 102670 40
2010-09-13 09:39 51°16.023 2°40.682 6.2 246 16.7 102670 39
2010-09-13 09:40 51°16.234 2°40.699 6.4 24 16.7 102660 40
2010-09-13 09:41 51°16.444 2°40.722 7.1 245 16.6 102660 40
2010-09-13 09:42 51°16.654 2°40.747 6.5 23 16.7 102660 41
2010-09-13 09:43 51°16.863 2°40.773 7.8 246 16.6 102660 39
2010-09-13 09:44 51°17.072 2°40.797 7.3 244 16.7 102660 41
2010-09-13 09:45 51°17.282 2°40.818 7.6 22 16.7 102660 42
2010-09-13 09:46 51°17.492 2°40.839 8 20 16.7 102660 41
2010-09-13 09:47 51°17.701 2°40.858 7 26 16.7 102660 39
2010-09-13 09:48 51°17.911 2°40.875 7.2 24 16.7 102660 41
2010-09-13 09:49 51°18.121 2°40.888 7.2 23 16.7 102660 41
2010-09-13 09:50 51°18.329 2°40.903 7.8 244 16.7 102650 41
2010-09-13 09:51 51°18.536 2°40.912 7.5 248 16.7 102650 40
2010-09-13 09:52 51°18.746 2°40.927 6 23 16.7 102660 40
2010-09-13 09:53 51°18.954 2°40.933 6.8 24 16.7 102650 40
2010-09-13 09:54 51°19.159 2°40.941 6.8 244 16.7 102650 41
2010-09-13 09:55 51°19.364 2°40.951 7.3 250 16.7 102650 40
2010-09-13 09:56 51°19.568 2°40.961 7.2 249 16.7 102640 40
2010-09-13 09:57 51°19.774 2°40.971 6.8 244 16.8 102640 40
2010-09-13 09:58 51°19.981 2°40.98 5.6 250 16.7 102640 40
2010-09-13 09:59 51°20.189 2°40.989 7.1 248 16.8 102640 41
2010-09-13 10:00 51°20.397 2°40.999 5.3 249 16.8 102640 41
2010-09-13 10:01 51°20.603 2°41.012 7 248 16.8 102640 40
2010-09-13 10:02 51°20.808 2°41.023 5.2 246 16.8 102650 40
2010-09-13 10:03 51°21.011 2°41.036 6.1 253 16.9 102640 40
2010-09-13 10:04 51°21.229 2°41.058 6.8 301 16.9 102640 39
2010-09-13 10:05 51°21.489 2°41.08 6.5 248 16.8 102630 40
2010-09-13 10:06 51°21.682 2°41.154 2.2 267 16.8 102640 40
2010-09-13 10:07 51°21.8 2°41.402 0.4 29 16.7 102650 39
2010-09-13 10:08 51°21.889 2°41.681 -999 25 16.8 102650 40
2010-09-13 10:09 51°22 2°41.941 0.6 256 16.9 102640 40
2010-09-13 10:10 51°22.155 2°42.136 2.4 256 16.9 102640 41
2010-09-13 10:11 51°22.34 2°42.23 7.2 248 17 102630 42
2010-09-13 10:12 51°22.54 2°42.263 5.1 251 16.9 102620 40
2010-09-13 10:13 51°22.723 2°42.382 3.4 260 16.9 102640 40
2010-09-13 10:14 51°22.902 2°42.513 3.4 261 16.8 102640 39
2010-09-13 10:15 51°23.08 2°42.645 4.4 262 16.8 102640 41
2010-09-13 10:16 51°23.258 2°42.777 3.3 261 16.8 102640 39
2010-09-13 10:17 51°23.431 2°42.922 2.9 259 16.8 102640 40
2010-09-13 10:18 51°23.598 2°43.081 3.9 262 16.7 102630 41
2010-09-13 10:19 51°23.766 2°43.239 3.8 267 16.8 102630 42
2010-09-13 10:20 51°23.934 2°43.396 2.7 269 16.7 102630 40
2010-09-13 10:21 51°24.102 2°43.551 3.4 262 16.7 102630 41
2010-09-13 10:22 51°24.275 2°43.693 2.9 262 16.7 102620 42
2010-09-13 10:23 51°24.456 2°43.811 4.5 261 16.7 102630 42
2010-09-13 10:24 51°24.645 2°43.898 5.6 256 16.7 102620 40
2010-09-13 10:25 51°24.832 2°43.988 4.5 262 16.8 102620 41
2010-09-13 10:26 51°24.937 2°43.985 8.4 262 16.8 102610 40
2010-09-13 10:27 51°24.954 2°43.936 10 255 16.8 102610 41
2010-09-13 10:28 51°24.949 2°43.905 9.7 247 16.8 102600 39
2010-09-13 10:29 51°24.939 2°43.883 10.1 252 16.8 102600 40
2010-09-13 10:30 51°24.928 2°43.862 9.7 257 16.8 102600 39
2010-09-13 10:31 51°24.914 2°43.842 5.4 264 16.8 102600 41
2010-09-13 10:32 51°24.903 2°43.826 7.2 264 16.7 102600 38
2010-09-13 10:33 51°24.89 2°43.811 5.8 263 16.7 102590 40
2010-09-13 10:34 51°24.878 2°43.797 7.4 263 16.7 102590 39
2010-09-13 10:35 51°24.864 2°43.78 7.7 268 16.7 102590 40
2010-09-13 10:36 51°24.859 2°43.755 8.5 258 16.6 102590 41
2010-09-13 10:37 51°24.931 2°43.65 9.3 22 16.7 102570 41
2010-09-13 10:38 51°25.042 2°43.53 8.6 248 16.7 102580 41
2010-09-13 10:39 51°25.112 2°43.379 10.8 22 16.7 102570 40
2010-09-13 10:40 51°25.075 2°43.259 10.2 341 16.7 102580 39
2010-09-13 10:41 51°25.011 2°43.23 9.8 15 16.7 102600 39
2010-09-13 10:42 51°24.937 2°43.266 7.7 26 16.6 102610 41
2010-09-13 10:43 51°24.888 2°43.362 6.2 40 16.6 102630 40
2010-09-13 10:44 51°24.887 2°43.482 5.7 28 16.6 102610 41
2010-09-13 10:45 51°24.901 2°43.578 5.8 23 16.5 102610 41
2010-09-13 10:46 51°24.9 2°43.659 7.8 44 16.6 102610 41
2010-09-13 10:47 51°24.896 2°43.751 7.4 42 16.6 102610 41
2010-09-13 10:48 51°24.879 2°43.859 6.7 40 16.6 102600 40
2010-09-13 10:49 51°24.861 2°43.962 7.7 40 16.6 102600 42
2010-09-13 10:50 51°24.846 2°44.059 5.3 44 16.6 102600 42
2010-09-13 10:51 51°24.831 2°44.154 7.4 28 16.6 102610 41
2010-09-13 10:52 51°24.808 2°44.251 7.8 35 16.6 102600 41
2010-09-13 10:53 51°24.773 2°44.347 8.9 32 16.7 102600 43
2010-09-13 10:54 51°24.73 2°44.439 9.1 29 16.6 102610 41
2010-09-13 10:55 51°24.682 2°44.526 9.1 25 16.7 102600 42
2010-09-13 10:56 51°24.615 2°44.586 9.9 11 16.6 102610 41
2010-09-13 10:57 51°24.536 2°44.566 9.9 346 16.6 102570 41
2010-09-13 10:58 51°24.462 2°44.492 9.3 338 16.6 102560 41
2010-09-13 10:59 51°24.398 2°44.388 8.8 337 16.7 102560 42
2010-09-13 11:00 51°24.352 2°44.308 11.1 338 16.7 102580 42
2010-09-13 11:01 51°24.319 2°44.249 8.3 332 16.8 102580 42
2010-09-13 11:02 51°24.297 2°44.16 10.6 22 16.7 102570 42
2010-09-13 11:03 51°24.348 2°43.976 11.9 22 16.8 102540 42
2010-09-13 11:04 51°24.478 2°43.782 11.5 25 16.8 102560 43
2010-09-13 11:05 51°24.632 2°43.63 11.8 246 16.8 102560 42
2010-09-13 11:06 51°24.782 2°43.467 9.8 21 16.9 102560 42
2010-09-13 11:07 51°24.932 2°43.308 11.6 26 16.9 102560 42
2010-09-13 11:08 51°25.079 2°43.146 11 24 16.9 102550 42
2010-09-13 11:09 51°25.227 2°42.982 10.9 247 16.9 102550 41
2010-09-13 11:10 51°25.387 2°42.809 9.8 21 16.9 102550 43
2010-09-13 11:11 51°25.561 2°42.646 10.4 251 16.9 102550 42
2010-09-13 11:12 51°25.751 2°42.58 8.3 253 16.9 102550 43
2010-09-13 11:13 51°25.943 2°42.526 10.8 255 16.9 102560 42
2010-09-13 11:14 51°26.136 2°42.476 10.7 250 16.9 102560 42
2010-09-13 11:15 51°26.328 2°42.432 8.4 250 16.8 102560 42
2010-09-13 11:16 51°26.446 2°42.367 10.3 259 16.8 102550 41
2010-09-13 11:17 51°26.467 2°42.293 10.6 245 16.9 102570 43
2010-09-13 11:18 51°26.469 2°42.244 10.9 252 16.8 102570 43
2010-09-13 11:19 51°26.46 2°42.219 10.4 253 16.8 102570 42
2010-09-13 11:20 51°26.445 2°42.204 8.6 261 16.8 102570 43
2010-09-13 11:21 51°26.427 2°42.189 9.6 269 16.8 102570 42
2010-09-13 11:22 51°26.407 2°42.175 9.1 31 16.7 102590 40
2010-09-13 11:23 51°26.387 2°42.16 10.2 22 16.7 102580 42
2010-09-13 11:24 51°26.367 2°42.144 8.1 27 16.8 102580 43
2010-09-13 11:25 51°26.348 2°42.128 9 24 16.8 102580 42
2010-09-13 11:26 51°26.327 2°42.112 9.2 23 16.7 102580 41
2010-09-13 11:27 51°26.31 2°42.097 8.6 25 16.7 102560 42
2010-09-13 11:28 51°26.339 2°42.049 10.3 25 16.7 102570 42
2010-09-13 11:29 51°26.352 2°41.901 13.2 320 16.8 102530 43
2010-09-13 11:30 51°26.335 2°41.702 11.7 26 16.8 102500 41
2010-09-13 11:31 51°26.391 2°41.568 5.6 266 16.8 102560 42
2010-09-13 11:32 51°26.452 2°41.563 6.6 20 16.8 102550 42
2010-09-13 11:33 51°26.494 2°41.582 7.2 29 16.8 102550 42
2010-09-13 11:34 51°26.54 2°41.59 6.1 270 16.8 102550 43
2010-09-13 11:35 51°26.59 2°41.575 8 269 16.9 102550 44
2010-09-13 11:36 51°26.639 2°41.554 8.7 269 16.8 102540 42
2010-09-13 11:37 51°26.69 2°41.539 7 27 16.9 102550 45
2010-09-13 11:38 51°26.739 2°41.554 6.2 26 16.9 102570 44
2010-09-13 11:39 51°26.79 2°41.568 8.3 24 16.9 102560 43
2010-09-13 11:40 51°26.843 2°41.564 6.8 269 16.9 102550 42
2010-09-13 11:41 51°26.897 2°41.548 8.7 270 16.9 102550 44
2010-09-13 11:42 51°26.951 2°41.522 7.8 266 16.9 102540 44
2010-09-13 11:43 51°27.003 2°41.49 7.7 262 17 102540 43
2010-09-13 11:44 51°27.056 2°41.452 7.4 261 17 102540 42
2010-09-13 11:45 51°27.108 2°41.416 8.9 262 17 102530 43
2010-09-13 11:46 51°27.156 2°41.393 7.8 269 16.9 102530 43
2010-09-13 11:47 51°27.204 2°41.398 8.3 23 16.9 102540 42
2010-09-13 11:48 51°27.243 2°41.436 6.2 23 16.9 102540 43
2010-09-13 11:49 51°27.257 2°41.508 7.4 45 16.8 102550 43
2010-09-13 11:50 51°27.239 2°41.593 9.9 35 16.8 102550 43
2010-09-13 11:51 51°27.198 2°41.665 9.1 23 16.8 102550 43
2010-09-13 11:52 51°27.158 2°41.699 10.3 23 16.8 102560 43
2010-09-13 11:53 51°27.128 2°41.709 10 17 16.8 102550 43
2010-09-13 11:54 51°27.104 2°41.706 10.2 18 16.8 102550 42
2010-09-13 11:55 51°27.085 2°41.696 12.5 13 16.8 102530 43
2010-09-13 11:56 51°27.071 2°41.686 11.4 13 16.8 102530 42
2010-09-13 11:57 51°27.046 2°41.687 11.3 18 16.8 102520 43
2010-09-13 11:58 51°26.976 2°41.769 8.8 16 16.8 102530 44
2010-09-13 11:59 51°26.841 2°41.949 11.5 10 16.8 102530 43
2010-09-13 12:00 51°26.69 2°42.171 11 8 16.7 102520 42
2010-09-13 12:01 51°26.538 2°42.398 9.9 13 16.7 102530 43
2010-09-13 12:02 51°26.385 2°42.625 10.6 11 16.7 102520 44
2010-09-13 12:03 51°26.232 2°42.853 11.7 7 16.8 102520 44
2010-09-13 12:04 51°26.076 2°43.074 12.6 10 16.7 102520 44
2010-09-13 12:05 51°25.92 2°43.298 11.8 13 16.7 102520 43
2010-09-13 12:06 51°25.776 2°43.463 8.1 28 16.7 102530 45
2010-09-13 12:07 51°25.775 2°43.546 8 24 16.8 102560 44
2010-09-13 12:08 51°25.818 2°43.569 8.8 23 16.7 102570 42
2010-09-13 12:09 51°25.866 2°43.563 6.9 269 16.8 102560 44
2010-09-13 12:10 51°25.879 2°43.537 10 259 16.9 102560 43
2010-09-13 12:11 51°25.877 2°43.508 12 256 17 102540 45
2010-09-13 12:12 51°25.872 2°43.482 10.8 257 16.9 102550 43
2010-09-13 12:13 51°25.865 2°43.463 11.3 258 16.9 102540 44
2010-09-13 12:14 51°25.856 2°43.446 12.3 257 16.9 102550 42
2010-09-13 12:15 51°25.846 2°43.43 7.1 263 17 102550 44
2010-09-13 12:16 51°25.834 2°43.415 7.2 264 17 102560 43
2010-09-13 12:17 51°25.821 2°43.402 7 265 17 102570 43
2010-09-13 12:18 51°25.834 2°43.381 8.2 261 17 102530 44
2010-09-13 12:19 51°25.909 2°43.353 8.6 30 16.9 102530 42
2010-09-13 12:20 51°25.983 2°43.379 7.5 268 17 102540 43
2010-09-13 12:21 51°26.051 2°43.381 6.9 264 17 102530 42
2010-09-13 12:22 51°26.116 2°43.348 12.3 259 17 102530 43
2010-09-13 12:23 51°26.173 2°43.307 11.2 262 17 102520 42
2010-09-13 12:24 51°26.223 2°43.263 11.3 259 17 102520 43
2010-09-13 12:25 51°26.271 2°43.208 10.4 258 17 102520 44
2010-09-13 12:26 51°26.317 2°43.149 12.7 258 17 102520 43
2010-09-13 12:27 51°26.366 2°43.091 11.6 257 17 102520 44
2010-09-13 12:28 51°26.415 2°43.034 10.6 258 17 102530 44
2010-09-13 12:29 51°26.466 2°42.988 7.6 261 17 102520 44
2010-09-13 12:30 51°26.519 2°42.952 7.1 262 17 102520 43
2010-09-13 12:31 51°26.576 2°42.927 9.3 267 17 102520 43
2010-09-13 12:32 51°26.63 2°42.915 7.7 267 16.9 102530 41
2010-09-13 12:33 51°26.684 2°42.894 6.3 263 16.9 102540 44
2010-09-13 12:34 51°26.737 2°42.872 7.8 269 16.9 102540 44
2010-09-13 12:35 51°26.787 2°42.871 9.3 28 16.9 102540 43
2010-09-13 12:36 51°26.83 2°42.909 4.8 30 16.9 102540 42
2010-09-13 12:37 51°26.849 2°42.981 8.9 25 16.9 102550 42
2010-09-13 12:38 51°26.841 2°43.035 9.6 38 16.9 102550 43
2010-09-13 12:39 51°26.824 2°43.063 7.5 28 16.9 102550 45
2010-09-13 12:40 51°26.804 2°43.076 9.2 23 16.9 102530 44
2010-09-13 12:41 51°26.733 2°43.134 10.1 6 16.9 102520 43
2010-09-13 12:42 51°26.575 2°43.289 9.8 5 16.9 102510 44
2010-09-13 12:43 51°26.382 2°43.452 10.3 3 16.8 102510 44
2010-09-13 12:44 51°26.183 2°43.601 10.1 7 16.8 102500 44
2010-09-13 12:45 51°25.985 2°43.751 11.6 1 16.8 102520 44
2010-09-13 12:46 51°25.785 2°43.902 10.9 5 16.8 102520 44
2010-09-13 12:47 51°25.583 2°44.058 12.4 360 16.7 102500 43
2010-09-13 12:48 51°25.378 2°44.213 10 6 16.7 102500 42
2010-09-13 12:49 51°25.175 2°44.374 10.1 3 16.8 102510 42
2010-09-13 12:50 51°24.981 2°44.552 9.5 2 16.8 102510 44
2010-09-13 12:51 51°24.798 2°44.755 10.6 5 16.8 102500 43
2010-09-13 12:52 51°24.612 2°44.957 10.4 6 16.8 102520 43
2010-09-13 12:53 51°24.428 2°45.159 8.7 7 16.8 102520 43
2010-09-13 12:54 51°24.249 2°45.346 8 6 16.8 102520 43
2010-09-13 12:55 51°24.077 2°45.563 10.3 8 16.8 102520 44
2010-09-13 12:56 51°23.915 2°45.788 8.4 7 16.8 102520 43
2010-09-13 12:57 51°23.755 2°46.018 9.6 7 16.8 102520 43
2010-09-13 12:58 51°23.591 2°46.243 9.5 6 16.8 102520 42
2010-09-13 12:59 51°23.425 2°46.47 11.4 10 16.8 102510 42
2010-09-13 13:00 51°23.262 2°46.707 11.4 14 16.8 102520 44
2010-09-13 13:01 51°23.097 2°46.941 8.7 5 16.8 102510 42
2010-09-13 13:02 51°22.926 2°47.168 10.8 8 16.8 102500 42
2010-09-13 13:03 51°22.756 2°47.398 8.9 6 16.9 102510 43
2010-09-13 13:04 51°22.584 2°47.631 11.5 11 16.8 102500 42
2010-09-13 13:05 51°22.417 2°47.861 10.4 12 16.9 102510 44
2010-09-13 13:06 51°22.247 2°48.104 8 5 16.9 102510 43
2010-09-13 13:07 51°22.079 2°48.34 10.1 9 16.9 102500 43
2010-09-13 13:08 51°21.908 2°48.578 11 9 16.9 102500 41
2010-09-13 13:09 51°21.741 2°48.819 9.7 6 16.9 102510 43
2010-09-13 13:10 51°21.573 2°49.048 8.8 6 16.9 102500 42
2010-09-13 13:11 51°21.406 2°49.281 10.8 8 16.9 102500 42
2010-09-13 13:12 51°21.24 2°49.514 10.2 7 16.9 102500 41
2010-09-13 13:13 51°21.079 2°49.756 9.9 10 16.9 102500 41
2010-09-13 13:14 51°20.915 2°49.991 8.9 7 16.9 102510 44
2010-09-13 13:15 51°20.749 2°50.223 8.2 5 16.9 102510 43
2010-09-13 13:16 51°20.584 2°50.457 11.5 9 17 102510 44
2010-09-13 13:17 51°20.415 2°50.689 10.3 6 16.9 102500 44
2010-09-13 13:18 51°20.25 2°50.924 10.3 8 16.9 102500 43
2010-09-13 13:19 51°20.081 2°51.161 9.8 9 16.9 102510 42
2010-09-13 13:20 51°19.914 2°51.396 9.4 8 16.9 102510 41
2010-09-13 13:21 51°19.707 2°51.517 11.1 357 16.9 102510 42
2010-09-13 13:22 51°19.482 2°51.537 13 356 16.9 102490 42
2010-09-13 13:23 51°19.26 2°51.591 13 358 17 102500 43
2010-09-13 13:24 51°19.038 2°51.657 10.8 358 17 102480 43
2010-09-13 13:25 51°18.814 2°51.726 10.6 356 17 102490 43
2010-09-13 13:26 51°18.592 2°51.801 11.8 357 17 102510 43
2010-09-13 13:27 51°18.371 2°51.884 11.9 358 17 102500 43
2010-09-13 13:28 51°18.153 2°51.967 13 355 17 102490 42
2010-09-13 13:29 51°17.935 2°52.048 13.8 356 17 102490 42
2010-09-13 13:30 51°17.718 2°52.135 11.1 357 17 102500 44
2010-09-13 13:31 51°17.497 2°52.214 12.3 355 17 102500 44
2010-09-13 13:32 51°17.283 2°52.302 10.2 359 17 102490 43
2010-09-13 13:33 51°17.067 2°52.431 10.2 -999 17 102500 43
2010-09-13 13:34 51°16.86 2°52.566 12.5 359 17 102490 43
2010-09-13 13:35 51°16.667 2°52.749 7.1 3 17.1 102500 42
2010-09-13 13:36 51°16.471 2°52.934 9.9 360 17.1 102500 42
2010-09-13 13:37 51°16.269 2°53.086 10.6 358 17 102500 42
2010-09-13 13:38 51°16.065 2°53.245 9 2 17.1 102490 42
2010-09-13 13:39 51°15.88 2°53.435 6.9 6 17.1 102500 43
2010-09-13 13:40 51°15.695 2°53.639 9.1 3 17.1 102500 43
2010-09-13 13:41 51°15.513 2°53.847 9.3 4 17.1 102510 43
2010-09-13 13:42 51°15.337 2°54.06 9.9 6 17.2 102510 43
2010-09-13 13:43 51°15.159 2°54.262 9.2 359 17.1 102510 43
2010-09-13 13:44 51°14.984 2°54.488 7.5 2 17.2 102520 43
2010-09-13 13:45 51°14.815 2°54.714 7.5 2 17.2 102510 43
2010-09-13 13:46 51°14.641 2°54.922 8.7 3 17.2 102500 43
2010-09-13 13:47 51°14.457 2°55.112 8.9 360 17.2 102500 43
2010-09-13 13:48 51°14.28 2°55.284 8.1 360 17.2 102500 42
2010-09-13 13:49 51°14.14 2°55.402 6 2 17.3 102510 43
2010-09-13 13:50 51°14.019 2°55.493 4.3 5 17.4 102520 43
2010-09-13 13:51 51°13.899 2°55.579 5.5 355 17.6 102510 42
2010-09-13 13:52 51°13.803 2°55.658 3.5 353 17.7 102510 41
2010-09-13 13:53 51°13.728 2°55.774 2.8 18 17.8 102510 41
2010-09-13 13:54 51°13.679 2°55.889 1.8 42 17.8 102520 42
2010-09-13 13:55 51°13.662 2°55.959 3.3 41 17.9 102520 41